createdAt,value
2022-12-08T00:01:30.081Z,41.59
2022-12-08T00:04:02.783Z,41.42
2022-12-08T00:06:49.871Z,41.69
2022-12-08T00:09:21.083Z,41.41
2022-12-08T00:12:13.144Z,41.73
2022-12-08T00:14:43.495Z,41.45
2022-12-08T00:17:13.564Z,41.33
2022-12-08T00:19:43.491Z,41.84
2022-12-08T00:22:12.958Z,41.75
2022-12-08T00:24:42.572Z,41.80
2022-12-08T00:27:14.245Z,41.46
2022-12-08T00:29:44.255Z,41.52
2022-12-08T00:32:12.309Z,41.57
2022-12-08T00:34:40.392Z,41.85
2022-12-08T00:37:08.415Z,41.50
2022-12-08T00:39:36.340Z,41.74
2022-12-08T00:42:04.467Z,41.43
2022-12-08T00:44:33.040Z,41.77
2022-12-08T00:47:01.076Z,41.98
2022-12-08T00:49:30.197Z,41.75
2022-12-08T00:51:58.254Z,41.71
2022-12-08T00:54:26.236Z,41.82
2022-12-08T00:56:54.445Z,42.10
2022-12-08T00:59:22.631Z,42.02
2022-12-08T01:01:50.756Z,41.68
2022-12-08T01:04:20.110Z,41.42
2022-12-08T01:06:49.287Z,41.66
2022-12-08T01:09:18.212Z,41.28
2022-12-08T01:11:46.429Z,41.08
2022-12-08T01:14:15.189Z,41.46
2022-12-08T01:16:43.832Z,41.28
2022-12-08T01:19:14.300Z,41.22
2022-12-08T01:21:43.914Z,41.13
2022-12-08T01:24:14.552Z,41.35
2022-12-08T01:26:42.608Z,41.38
2022-12-08T01:29:11.274Z,41.50
2022-12-08T01:31:39.788Z,41.54
2022-12-08T01:34:09.821Z,41.35
2022-12-08T01:36:38.675Z,41.20
2022-12-08T01:39:10.937Z,41.07
2022-12-08T01:41:39.129Z,41.35
2022-12-08T01:44:06.984Z,41.43
2022-12-08T01:46:37.842Z,41.26
2022-12-08T01:49:13.951Z,41.41
2022-12-08T01:52:03.270Z,41.19
2022-12-08T01:54:37.068Z,41.12
2022-12-08T01:57:17.276Z,41.17
2022-12-08T01:59:51.753Z,40.77
2022-12-08T02:02:19.901Z,41.27
2022-12-08T02:04:48.094Z,41.00
2022-12-08T02:07:17.927Z,41.01
2022-12-08T02:09:46.657Z,40.97
2022-12-08T02:12:15.229Z,41.25
2022-12-08T02:14:43.603Z,41.17
2022-12-08T02:17:45.851Z,41.28
2022-12-08T02:20:27.839Z,41.17
2022-12-08T02:23:15.351Z,41.26
2022-12-08T02:26:11.923Z,41.04
2022-12-08T02:29:22.601Z,41.07
2022-12-08T02:32:26.213Z,41.39
2022-12-08T02:35:00.015Z,41.49
2022-12-08T02:37:48.228Z,41.12
2022-12-08T02:40:35.570Z,41.26
2022-12-08T02:43:03.689Z,41.43
2022-12-08T02:45:50.317Z,41.36
2022-12-08T02:48:19.508Z,41.33
2022-12-08T02:50:47.524Z,41.48
2022-12-08T02:56:09.024Z,41.54
2022-12-08T02:58:58.895Z,41.37
2022-12-08T03:01:55.971Z,41.68
2022-12-08T03:04:26.906Z,41.50
2022-12-08T03:07:00.450Z,41.59
2022-12-08T03:10:07.240Z,41.55
2022-12-08T03:12:43.945Z,41.62
2022-12-08T03:15:16.462Z,42.00
2022-12-08T03:17:50.249Z,41.64
2022-12-08T03:20:24.169Z,41.70
2022-12-08T03:22:56.098Z,42.00
2022-12-08T03:25:27.971Z,41.96
2022-12-08T03:27:56.813Z,42.09
2022-12-08T03:30:24.854Z,41.89
2022-12-08T03:33:04.968Z,42.07
2022-12-08T03:35:35.546Z,42.03
2022-12-08T03:38:06.215Z,42.01
2022-12-08T03:40:34.759Z,42.15
2022-12-08T03:43:02.841Z,42.19
2022-12-08T03:45:31.519Z,42.13
2022-12-08T03:47:59.649Z,42.14
2022-12-08T03:50:27.798Z,42.28
2022-12-08T03:52:56.208Z,42.04
2022-12-08T03:55:24.510Z,42.03
2022-12-08T03:57:52.482Z,42.10
2022-12-08T04:00:22.329Z,42.15
2022-12-08T04:02:50.276Z,41.88
2022-12-08T04:05:18.447Z,42.19
2022-12-08T04:07:46.988Z,41.87
2022-12-08T04:10:15.003Z,42.16
2022-12-08T04:12:42.962Z,42.40
2022-12-08T04:15:11.480Z,41.94
2022-12-08T04:17:39.444Z,42.29
2022-12-08T04:20:07.838Z,42.30
2022-12-08T04:22:36.196Z,42.29
2022-12-08T04:25:04.991Z,42.27
2022-12-08T04:27:33.082Z,42.34
2022-12-08T04:30:01.641Z,42.19
2022-12-08T04:32:29.821Z,42.15
2022-12-08T04:34:57.899Z,42.19
2022-12-08T04:37:26.084Z,42.04
2022-12-08T04:39:54.176Z,42.22
2022-12-08T04:42:22.165Z,42.09
2022-12-08T04:44:50.278Z,42.18
2022-12-08T04:47:18.294Z,42.17
2022-12-08T04:49:46.420Z,42.14
2022-12-08T04:52:14.639Z,41.95
2022-12-08T04:54:42.743Z,42.31
2022-12-08T04:57:10.746Z,42.36
2022-12-08T04:59:39.233Z,41.97
2022-12-08T05:02:07.432Z,42.16
2022-12-08T05:04:35.802Z,42.16
2022-12-08T05:07:03.830Z,42.12
2022-12-08T05:09:32.176Z,42.49
2022-12-08T05:12:00.187Z,42.37
2022-12-08T05:14:28.299Z,42.47
2022-12-08T05:16:56.736Z,42.21
2022-12-08T05:19:25.243Z,42.22
2022-12-08T05:21:53.446Z,42.42
2022-12-08T05:24:21.444Z,42.44
2022-12-08T05:26:49.429Z,42.27
2022-12-08T05:29:17.464Z,42.22
2022-12-08T05:31:46.139Z,42.63
2022-12-08T05:34:14.414Z,42.72
2022-12-08T05:36:42.662Z,42.84
2022-12-08T05:39:15.013Z,42.97
2022-12-08T05:41:43.268Z,42.94
2022-12-08T05:44:11.363Z,42.85
2022-12-08T05:46:39.371Z,42.89
2022-12-08T05:49:07.678Z,43.16
2022-12-08T05:51:35.668Z,43.33
2022-12-08T05:54:03.693Z,43.09
2022-12-08T05:56:31.689Z,43.34
2022-12-08T05:58:59.704Z,43.19
2022-12-08T06:01:31.823Z,43.23
2022-12-08T06:04:02.137Z,43.23
2022-12-08T06:06:36.491Z,43.18
2022-12-08T06:09:05.819Z,43.16
2022-12-08T06:11:34.099Z,43.20
2022-12-08T06:14:02.663Z,43.24
2022-12-08T06:16:30.871Z,43.38
2022-12-08T06:18:59.111Z,43.05
2022-12-08T06:21:27.136Z,43.12
2022-12-08T06:23:55.446Z,43.42
2022-12-08T06:26:23.480Z,43.33
2022-12-08T06:28:52.425Z,43.24
2022-12-08T06:31:25.927Z,43.48
2022-12-08T06:33:55.477Z,43.42
2022-12-08T06:36:25.960Z,43.32
2022-12-08T06:38:54.493Z,43.49
2022-12-08T06:41:22.872Z,43.41
2022-12-08T06:43:51.222Z,43.58
2022-12-08T06:46:20.030Z,43.44
2022-12-08T06:48:48.753Z,43.52
2022-12-08T06:51:21.633Z,43.68
2022-12-08T06:53:50.248Z,43.63
2022-12-08T06:56:22.920Z,43.69
2022-12-08T06:58:53.037Z,43.84
2022-12-08T07:01:21.983Z,43.68
2022-12-08T07:03:50.090Z,43.84
2022-12-08T07:06:21.712Z,43.81
2022-12-08T07:08:50.099Z,43.89
2022-12-08T07:11:21.586Z,43.83
2022-12-08T07:13:50.987Z,43.91
2022-12-08T07:16:19.422Z,43.93
2022-12-08T07:18:47.660Z,43.77
2022-12-08T07:21:16.410Z,43.88
2022-12-08T07:23:54.384Z,43.99
2022-12-08T07:26:26.171Z,43.89
2022-12-08T07:28:54.171Z,43.79
2022-12-08T07:31:25.523Z,44.00
2022-12-08T07:33:53.809Z,43.84
2022-12-08T07:36:21.942Z,43.79
2022-12-08T07:38:50.652Z,43.91
2022-12-08T07:41:23.371Z,43.73
2022-12-08T07:43:53.256Z,43.80
2022-12-08T07:46:23.822Z,43.82
2022-12-08T07:48:54.177Z,43.61
2022-12-08T07:51:22.115Z,43.47
2022-12-08T07:53:54.115Z,43.67
2022-12-08T07:56:23.664Z,43.66
2022-12-08T07:58:52.103Z,43.72
2022-12-08T08:01:28.598Z,43.65
2022-12-08T08:03:58.399Z,43.48
2022-12-08T08:06:26.362Z,43.31
2022-12-08T08:08:55.002Z,43.29
2022-12-08T08:11:23.378Z,43.21
2022-12-08T08:13:52.152Z,43.23
2022-12-08T08:16:21.070Z,43.41
2022-12-08T08:18:52.247Z,43.21
2022-12-08T08:24:09.648Z,43.03
2022-12-08T08:26:38.063Z,43.09
2022-12-08T08:29:06.216Z,42.98
2022-12-08T08:31:34.369Z,42.95
2022-12-08T08:34:02.752Z,42.61
2022-12-08T08:36:30.772Z,42.64
2022-12-08T08:38:58.748Z,42.47
2022-12-08T08:41:26.900Z,42.28
2022-12-08T08:43:55.087Z,41.95
2022-12-08T08:46:23.212Z,41.73
2022-12-08T08:48:51.242Z,41.49
2022-12-08T08:51:19.238Z,41.24
2022-12-08T08:53:47.286Z,41.01
2022-12-08T08:56:18.258Z,40.87
2022-12-08T08:58:49.271Z,39.78
2022-12-08T09:01:19.869Z,38.22
2022-12-08T09:03:49.125Z,37.42
2022-12-08T09:06:17.881Z,37.74
2022-12-08T09:08:47.096Z,37.29
2022-12-08T09:11:17.044Z,36.96
2022-12-08T09:13:48.491Z,37.40
2022-12-08T09:16:17.830Z,37.34
2022-12-08T09:18:46.197Z,37.29
2022-12-08T09:21:16.398Z,37.81
2022-12-08T09:23:44.541Z,37.91
2022-12-08T09:26:12.719Z,37.97
2022-12-08T09:28:40.831Z,38.05
2022-12-08T09:31:08.873Z,38.02
2022-12-08T09:33:36.877Z,38.03
2022-12-08T09:36:05.072Z,38.15
2022-12-08T09:38:33.093Z,38.17
2022-12-08T09:41:05.074Z,38.39
2022-12-08T09:44:00.830Z,38.62
2022-12-08T09:46:32.449Z,38.30
2022-12-08T09:49:03.395Z,38.54
2022-12-08T09:51:37.086Z,38.38
2022-12-08T09:54:44.711Z,38.34
2022-12-08T09:57:18.849Z,38.17
2022-12-08T09:59:53.957Z,38.25
2022-12-08T10:02:28.894Z,37.96
2022-12-08T10:04:59.635Z,37.79
2022-12-08T10:07:59.279Z,37.81
2022-12-08T10:10:33.342Z,37.57
2022-12-08T10:13:14.057Z,37.50
2022-12-08T10:15:51.134Z,37.67
2022-12-08T10:18:31.357Z,37.87
2022-12-08T10:21:13.731Z,38.07
2022-12-08T10:23:44.825Z,37.88
2022-12-08T10:26:15.696Z,37.81
2022-12-08T10:28:45.470Z,37.60
2022-12-08T10:31:24.393Z,36.18
2022-12-08T10:33:59.767Z,35.95
2022-12-08T10:37:09.724Z,33.96
2022-12-08T10:39:39.663Z,33.03
2022-12-08T10:42:13.907Z,31.29
2022-12-08T10:44:53.124Z,30.19
2022-12-08T10:47:23.376Z,29.95
2022-12-08T10:50:16.609Z,28.32
2022-12-08T10:52:44.754Z,27.92
2022-12-08T10:55:21.980Z,28.26
2022-12-08T10:57:50.338Z,28.17
2022-12-08T11:00:27.156Z,27.15
2022-12-08T11:03:04.168Z,26.77
2022-12-08T11:05:36.253Z,27.72
2022-12-08T11:08:05.773Z,28.05
2022-12-08T11:10:43.795Z,28.85
2022-12-08T11:13:27.157Z,28.58
2022-12-08T11:15:58.218Z,28.21
2022-12-08T11:18:39.227Z,28.10
2022-12-08T11:21:13.046Z,27.92
2022-12-08T11:23:43.522Z,28.37
2022-12-08T11:26:35.571Z,28.57
2022-12-08T11:29:03.656Z,28.94
2022-12-08T11:31:42.752Z,29.55
2022-12-08T11:34:21.103Z,29.97
2022-12-08T11:36:52.124Z,30.40
2022-12-08T11:39:22.063Z,30.42
2022-12-08T11:41:54.457Z,30.89
2022-12-08T11:44:47.470Z,31.39
2022-12-08T11:47:24.680Z,32.25
2022-12-08T11:49:59.491Z,33.08
2022-12-08T11:52:43.774Z,33.26
2022-12-08T11:55:35.242Z,33.60
2022-12-08T11:58:26.920Z,33.89
2022-12-08T12:00:55.394Z,34.16
2022-12-08T12:03:39.557Z,34.16
2022-12-08T12:06:53.288Z,34.21
2022-12-08T12:09:34.820Z,34.09
2022-12-08T12:12:30.909Z,34.02
2022-12-08T12:15:20.306Z,33.76
2022-12-08T12:17:54.655Z,33.76
2022-12-08T12:20:33.508Z,33.42
2022-12-08T12:23:40.165Z,34.34
2022-12-08T12:26:16.871Z,34.52
2022-12-08T12:28:53.037Z,34.67
2022-12-08T12:31:53.587Z,34.46
2022-12-08T12:34:36.197Z,34.62
2022-12-08T12:37:15.335Z,34.63
2022-12-08T12:39:52.630Z,34.44
2022-12-08T12:42:43.466Z,34.55
2022-12-08T12:45:14.761Z,34.80
2022-12-08T12:47:56.365Z,35.13
2022-12-08T12:50:34.183Z,35.16
2022-12-08T12:53:27.053Z,35.22
2022-12-08T12:56:03.409Z,35.62
2022-12-08T12:58:31.453Z,35.42
2022-12-08T13:01:08.818Z,35.34
2022-12-08T13:03:42.266Z,35.47
2022-12-08T13:06:14.584Z,35.68
2022-12-08T13:08:55.385Z,36.08
2022-12-08T13:11:26.033Z,36.67
2022-12-08T13:14:03.165Z,36.65
2022-12-08T13:16:33.306Z,36.62
2022-12-08T13:19:05.051Z,36.73
2022-12-08T13:21:36.787Z,36.75
2022-12-08T13:24:11.271Z,36.87
2022-12-08T13:27:04.251Z,37.12
2022-12-08T13:29:34.095Z,37.58
2022-12-08T13:32:09.087Z,37.44
2022-12-08T13:34:55.743Z,37.76
2022-12-08T13:37:33.227Z,37.88
2022-12-08T13:40:14.714Z,37.80
2022-12-08T13:42:43.224Z,38.25
2022-12-08T13:48:35.242Z,38.04
2022-12-08T13:57:36.921Z,37.49
2022-12-08T14:00:15.365Z,37.50
2022-12-08T14:02:49.757Z,37.25
2022-12-08T14:05:26.634Z,37.25
2022-12-08T14:08:50.733Z,37.34
2022-12-08T14:11:21.960Z,37.87
2022-12-08T14:13:50.332Z,38.27
2022-12-08T14:16:39.905Z,38.46
2022-12-08T14:19:26.038Z,38.90
2022-12-08T14:21:58.720Z,39.07
2022-12-08T14:24:29.907Z,39.24
2022-12-08T14:27:04.706Z,38.93
2022-12-08T14:29:48.348Z,39.12
2022-12-08T14:32:22.757Z,39.23
2022-12-08T14:35:28.036Z,39.11
2022-12-08T14:37:59.244Z,39.44
2022-12-08T14:40:37.597Z,39.41
2022-12-08T14:43:09.091Z,39.03
2022-12-08T14:45:40.369Z,39.22
2022-12-08T14:48:32.789Z,39.35
2022-12-08T14:51:04.350Z,39.41
2022-12-08T14:53:43.603Z,39.62
2022-12-08T14:56:22.905Z,39.83
2022-12-08T14:59:22.317Z,39.68
2022-12-08T15:01:53.456Z,39.85
2022-12-08T15:04:28.612Z,40.27
2022-12-08T15:07:04.913Z,40.58
2022-12-08T15:09:37.505Z,40.99
2022-12-08T15:12:07.074Z,40.89
2022-12-08T15:14:37.482Z,41.17
2022-12-08T15:17:28.151Z,41.08
2022-12-08T15:19:57.989Z,41.27
2022-12-08T15:22:26.699Z,41.37
2022-12-08T15:24:56.382Z,41.42
2022-12-08T15:27:26.011Z,41.32
2022-12-08T15:29:54.143Z,41.31
2022-12-08T15:32:23.767Z,41.45
2022-12-08T15:34:51.807Z,41.77
2022-12-08T15:37:25.158Z,42.34
2022-12-08T15:39:54.534Z,42.45
2022-12-08T15:42:22.549Z,42.63
2022-12-08T15:44:50.486Z,42.76
2022-12-08T15:47:24.206Z,42.82
2022-12-08T15:49:52.621Z,42.63
2022-12-08T15:52:23.112Z,42.99
2022-12-08T15:54:51.400Z,42.75
2022-12-08T15:57:53.523Z,42.96
2022-12-08T16:00:51.353Z,42.95
2022-12-08T16:04:19.936Z,43.15
2022-12-08T16:09:14.498Z,43.32
2022-12-08T16:12:05.288Z,43.43
2022-12-08T16:17:19.336Z,43.34
2022-12-08T16:19:47.572Z,43.42
2022-12-08T16:25:21.389Z,43.56
2022-12-08T16:28:23.111Z,44.02
2022-12-08T16:30:43.337Z,44.14
2022-12-08T16:33:14.655Z,44.27
2022-12-08T16:35:43.262Z,44.22
2022-12-08T16:38:15.107Z,43.91
2022-12-08T16:40:47.491Z,44.27
2022-12-08T16:43:15.593Z,44.19
2022-12-08T16:45:45.246Z,44.59
2022-12-08T16:48:14.710Z,44.62
2022-12-08T16:50:45.474Z,44.42
2022-12-08T16:53:13.898Z,44.37
2022-12-08T16:55:49.436Z,44.41
2022-12-08T16:58:17.918Z,44.22
2022-12-08T17:00:47.179Z,44.13
2022-12-08T17:03:16.534Z,44.49
2022-12-08T17:05:44.491Z,44.52
2022-12-08T17:08:12.753Z,44.59
2022-12-08T17:10:42.416Z,44.47
2022-12-08T17:13:10.592Z,44.45
2022-12-08T17:15:40.553Z,44.50
2022-12-08T17:18:08.575Z,44.50
2022-12-08T17:20:36.462Z,44.66
2022-12-08T17:23:04.534Z,44.78
2022-12-08T17:25:32.818Z,44.83
2022-12-08T17:28:01.001Z,44.69
2022-12-08T17:30:29.019Z,44.71
2022-12-08T17:32:57.983Z,45.00
2022-12-08T17:35:26.879Z,44.71
2022-12-08T17:37:54.879Z,44.93
2022-12-08T17:40:25.633Z,44.86
2022-12-08T17:42:56.184Z,44.98
2022-12-08T17:45:24.366Z,45.03
2022-12-08T17:47:52.241Z,45.19
2022-12-08T17:50:20.276Z,45.09
2022-12-08T17:52:50.686Z,45.11
2022-12-08T17:55:18.679Z,45.14
2022-12-08T17:57:46.675Z,45.28
2022-12-08T18:00:15.312Z,45.36
2022-12-08T18:02:43.620Z,45.12
2022-12-08T18:05:11.782Z,45.40
2022-12-08T18:07:39.916Z,46.07
2022-12-08T18:10:08.968Z,45.57
2022-12-08T18:12:37.040Z,45.53
2022-12-08T18:15:08.628Z,45.48
2022-12-08T18:17:36.657Z,45.34
2022-12-08T18:20:08.276Z,45.43
2022-12-08T18:22:36.503Z,45.72
2022-12-08T18:25:05.722Z,45.72
2022-12-08T18:27:39.948Z,45.63
2022-12-08T18:30:15.949Z,45.72
2022-12-08T18:32:43.965Z,45.80
2022-12-08T18:35:12.079Z,45.78
2022-12-08T18:37:40.241Z,46.03
2022-12-08T18:40:09.192Z,46.12
2022-12-08T18:42:37.285Z,46.28
2022-12-08T18:45:06.878Z,46.28
2022-12-08T18:47:39.820Z,46.34
2022-12-08T18:50:09.368Z,46.43
2022-12-08T18:52:37.341Z,46.46
2022-12-08T18:55:07.023Z,46.64
2022-12-08T18:57:40.082Z,46.83
2022-12-08T19:00:11.963Z,46.73
2022-12-08T19:02:40.982Z,46.94
2022-12-08T19:05:11.846Z,47.03
2022-12-08T19:07:39.939Z,46.99
2022-12-08T19:10:09.353Z,46.84
2022-12-08T19:12:37.967Z,47.11
2022-12-08T19:15:06.585Z,47.09
2022-12-08T19:17:34.981Z,46.62
2022-12-08T19:20:03.836Z,47.02
2022-12-08T19:22:32.073Z,47.23
2022-12-08T19:25:00.817Z,47.07
2022-12-08T19:27:28.855Z,47.15
2022-12-08T19:29:57.088Z,47.13
2022-12-08T19:32:25.625Z,47.02
2022-12-08T19:34:53.822Z,46.98
2022-12-08T19:37:22.033Z,47.05
2022-12-08T19:39:50.560Z,47.17
2022-12-08T19:42:20.653Z,47.29
2022-12-08T19:44:48.669Z,47.08
2022-12-08T19:47:16.855Z,47.27
2022-12-08T19:49:45.301Z,47.43
2022-12-08T19:52:13.681Z,47.60
2022-12-08T19:54:42.285Z,47.43
2022-12-08T19:57:10.339Z,47.48
2022-12-08T19:59:38.982Z,47.51
2022-12-08T20:02:07.912Z,47.40
2022-12-08T20:04:36.548Z,47.35
2022-12-08T20:07:04.532Z,47.41
2022-12-08T20:09:32.660Z,47.62
2022-12-08T20:12:00.749Z,47.48
2022-12-08T20:14:28.698Z,47.32
2022-12-08T20:16:57.360Z,47.42
2022-12-08T20:19:25.456Z,47.56
2022-12-08T20:21:53.495Z,47.48
2022-12-08T20:24:21.806Z,47.53
2022-12-08T20:26:49.853Z,47.45
2022-12-08T20:29:17.792Z,47.29
2022-12-08T20:31:46.228Z,47.48
2022-12-08T20:34:16.853Z,47.42
2022-12-08T20:36:46.439Z,47.55
2022-12-08T20:39:18.381Z,47.58
2022-12-08T20:41:46.620Z,47.66
2022-12-08T20:44:14.683Z,47.46
2022-12-08T20:46:49.018Z,47.53
2022-12-08T20:49:17.672Z,47.45
2022-12-08T20:51:45.824Z,47.42
2022-12-08T20:54:13.934Z,47.38
2022-12-08T20:56:48.084Z,47.17
2022-12-08T20:59:17.166Z,47.14
2022-12-08T21:01:45.889Z,47.19
2022-12-08T21:04:14.157Z,47.08
2022-12-08T21:06:42.480Z,47.20
2022-12-08T21:09:11.452Z,47.30
2022-12-08T21:11:39.869Z,47.31
2022-12-08T21:14:08.048Z,47.32
2022-12-08T21:16:36.564Z,47.07
2022-12-08T21:19:05.522Z,46.93
2022-12-08T21:21:33.831Z,46.97
2022-12-08T21:24:04.269Z,47.20
2022-12-08T21:26:32.425Z,46.95
2022-12-08T21:29:00.886Z,46.87
2022-12-08T21:31:29.628Z,47.01
2022-12-08T21:33:59.148Z,47.09
2022-12-08T21:36:27.820Z,47.04
2022-12-08T21:38:59.537Z,47.10
2022-12-08T21:41:27.749Z,46.94
2022-12-08T21:43:55.709Z,47.09
2022-12-08T21:46:23.832Z,46.97
2022-12-08T21:48:52.031Z,47.15
2022-12-08T21:51:20.295Z,47.21
2022-12-08T21:53:48.477Z,47.13
2022-12-08T21:56:17.480Z,47.32
2022-12-08T21:58:45.841Z,47.18
2022-12-08T22:01:13.956Z,47.27
2022-12-08T22:03:42.527Z,47.10
2022-12-08T22:06:13.211Z,47.15
2022-12-08T22:08:42.298Z,47.24
2022-12-08T22:11:11.690Z,47.31
2022-12-08T22:13:42.030Z,47.16
2022-12-08T22:16:12.890Z,47.32
2022-12-08T22:18:41.904Z,47.21
2022-12-08T22:21:12.370Z,47.35
2022-12-08T22:23:41.427Z,47.28
2022-12-08T22:26:10.402Z,47.16
2022-12-08T22:28:42.036Z,47.31
2022-12-08T22:31:11.400Z,47.29
2022-12-08T22:33:40.892Z,47.22
2022-12-08T22:36:15.557Z,47.19
2022-12-08T22:38:43.745Z,47.39
2022-12-08T22:41:15.231Z,47.33
2022-12-08T22:43:44.028Z,47.36
2022-12-08T22:46:17.822Z,47.12
2022-12-08T22:48:46.225Z,46.98
2022-12-08T22:51:15.829Z,47.14
2022-12-08T22:53:44.067Z,47.18
2022-12-08T22:56:14.652Z,47.28
2022-12-08T22:58:43.921Z,47.15
2022-12-08T23:01:27.817Z,47.13
2022-12-08T23:03:57.603Z,47.08
2022-12-08T23:06:28.089Z,47.35
2022-12-08T23:08:57.231Z,47.01
2022-12-08T23:11:28.929Z,47.03
2022-12-08T23:13:59.450Z,47.14
2022-12-08T23:16:28.287Z,47.21
2022-12-08T23:18:56.512Z,47.22
2022-12-08T23:21:24.879Z,47.51
2022-12-08T23:23:52.996Z,47.56
2022-12-08T23:26:26.964Z,47.86
2022-12-08T23:28:56.864Z,48.36
2022-12-08T23:31:26.222Z,48.52
2022-12-08T23:33:55.167Z,48.73
2022-12-08T23:36:23.923Z,48.50
2022-12-08T23:38:53.258Z,48.54
2022-12-08T23:41:22.084Z,48.49
2022-12-08T23:43:51.920Z,48.67
2022-12-08T23:46:22.759Z,48.91
2022-12-08T23:48:51.523Z,48.57
2022-12-08T23:51:19.631Z,48.61
2022-12-08T23:53:48.161Z,48.73
2022-12-08T23:56:18.248Z,48.83
2022-12-08T23:58:46.610Z,48.67
